THY5RM LTFM-GMMN
Flight info
| Callsign | THY5RM |
|---|---|
| Flight time | N/A |
| Altitude | 36000 |
| Route | BARPE1D/35L BARPE UM603 TSL UM600 KRK UL869 LATAN/N0479F370 DCT TUPAL/N0482F360 UG728 CBN DCT TUC UA411 KEMIR/N0477F380 UA411 FES UR975 SADIC |
| Aircraft | B77W/H-SDE1E2E3FGHIJ2J3J4J5M1RWXY/LB1D1 |
Departure
| Time | 2026-05-04 14:21 |
|---|---|
| Airport | İstanbul Airport (LTFM) |
Arrival
| Time | N/A |
|---|---|
| Airport | Mohammed V International Airport (GMMN) |
| Time | Latitude | Longitude | Altitude | Speed | Heading |
|---|---|---|---|---|---|
| 2026-05-04 13:32 | 41.24922 | 28.73441 | 340 ft | 0 kts | 179° |
| 2026-05-04 14:10 | 41.24929 | 28.73441 | 340 ft | 2 kts | 179° |
| 2026-05-04 14:10 | 41.24945 | 28.73440 | 340 ft | 2 kts | 182° |
| 2026-05-04 14:10 | 41.24959 | 28.73443 | 340 ft | 2 kts | 197° |
| 2026-05-04 14:10 | 41.24973 | 28.73450 | 340 ft | 2 kts | 209° |
| 2026-05-04 14:11 | 41.24986 | 28.73461 | 340 ft | 2 kts | 220° |
| 2026-05-04 14:11 | 41.25004 | 28.73492 | 340 ft | 2 kts | 244° |
| 2026-05-04 14:11 | 41.25010 | 28.73510 | 340 ft | 2 kts | 256° |
| 2026-05-04 14:12 | 41.25012 | 28.73529 | 340 ft | 1 kts | 267° |
| 2026-05-04 14:12 | 41.25012 | 28.73534 | 340 ft | 0 kts | 269° |
| 2026-05-04 14:14 | 41.25012 | 28.73524 | 340 ft | 3 kts | 268° |
| 2026-05-04 14:15 | 41.25008 | 28.73375 | 340 ft | 11 kts | 269° |
| 2026-05-04 14:15 | 41.25011 | 28.73177 | 340 ft | 10 kts | 294° |
| 2026-05-04 14:16 | 41.25183 | 28.73125 | 340 ft | 16 kts | 359° |
| 2026-05-04 14:16 | 41.25306 | 28.73121 | 340 ft | 18 kts | 358° |
| 2026-05-04 14:17 | 41.25608 | 28.73120 | 340 ft | 23 kts | 359° |
| 2026-05-04 14:17 | 41.25777 | 28.73119 | 340 ft | 25 kts | 1° |
| 2026-05-04 14:17 | 41.26115 | 28.73116 | 340 ft | 21 kts | 359° |
| 2026-05-04 14:18 | 41.26201 | 28.73068 | 340 ft | 12 kts | 303° |
| 2026-05-04 14:18 | 41.26214 | 28.73001 | 340 ft | 0 kts | 271° |
| 2026-05-04 14:19 | 41.26214 | 28.72993 | 340 ft | 4 kts | 271° |
| 2026-05-04 14:19 | 41.26215 | 28.72885 | 340 ft | 18 kts | 271° |
| 2026-05-04 14:19 | 41.26218 | 28.72720 | 340 ft | 17 kts | 269° |
| 2026-05-04 14:19 | 41.26224 | 28.72573 | 340 ft | 14 kts | 298° |
| 2026-05-04 14:20 | 41.26304 | 28.72522 | 340 ft | 2 kts | 357° |
| 2026-05-04 14:20 | 41.26317 | 28.72521 | 340 ft | 1 kts | 357° |
| 2026-05-04 14:20 | 41.26324 | 28.72521 | 340 ft | 0 kts | 357° |
| 2026-05-04 14:21 | 41.27235 | 28.72503 | 341 ft | 153 kts | 359° |
| 2026-05-04 14:21 | 41.28495 | 28.72478 | 764 ft | 200 kts | 359° |
| 2026-05-04 14:21 | 41.29897 | 28.72465 | 2142 ft | 206 kts | 358° |
| 2026-05-04 14:21 | 41.31182 | 28.72401 | 3650 ft | 183 kts | 1° |
| 2026-05-04 14:22 | 41.32408 | 28.72462 | 4546 ft | 179 kts | 0° |
| 2026-05-04 14:22 | 41.33715 | 28.72490 | 4968 ft | 201 kts | 360° |
| 2026-05-04 14:22 | 41.35205 | 28.72345 | 5002 ft | 229 kts | 346° |
| 2026-05-04 14:22 | 41.36704 | 28.71414 | 5020 ft | 247 kts | 325° |
| 2026-05-04 14:23 | 41.38158 | 28.67372 | 7178 ft | 257 kts | 281° |
| 2026-05-04 14:23 | 41.38173 | 28.64924 | 7840 ft | 274 kts | 277° |
| 2026-05-04 14:23 | 41.38127 | 28.62383 | 8675 ft | 279 kts | 277° |
| 2026-05-04 14:24 | 41.37933 | 28.59761 | 9466 ft | 293 kts | 265° |
| 2026-05-04 14:24 | 41.37440 | 28.57135 | 10223 ft | 301 kts | 263° |
| 2026-05-04 14:24 | 41.36893 | 28.54361 | 10753 ft | 318 kts | 263° |
| 2026-05-04 14:24 | 41.36312 | 28.51430 | 11270 ft | 335 kts | 262° |
| 2026-05-04 14:25 | 41.35700 | 28.48349 | 11756 ft | 353 kts | 262° |
| 2026-05-04 14:25 | 41.34387 | 28.41778 | 12864 ft | 384 kts | 262° |
| 2026-05-04 14:25 | 41.33686 | 28.38290 | 13438 ft | 399 kts | 261° |
| 2026-05-04 14:26 | 41.32949 | 28.34630 | 14028 ft | 413 kts | 260° |
| 2026-05-04 14:26 | 41.32198 | 28.30918 | 14813 ft | 420 kts | 260° |
| 2026-05-04 14:26 | 41.31432 | 28.27143 | 15693 ft | 424 kts | 259° |
| 2026-05-04 14:26 | 41.30660 | 28.23348 | 16462 ft | 431 kts | 259° |
| 2026-05-04 14:27 | 41.29872 | 28.19480 | 17201 ft | 438 kts | 259° |
| 2026-05-04 14:27 | 41.29072 | 28.15563 | 17978 ft | 443 kts | 259° |
| 2026-05-04 14:27 | 41.28263 | 28.11612 | 18769 ft | 448 kts | 258° |
| 2026-05-04 14:27 | 41.27447 | 28.07629 | 19473 ft | 454 kts | 259° |
| 2026-05-04 14:28 | 41.26606 | 28.03534 | 20309 ft | 458 kts | 258° |
| 2026-05-04 14:28 | 41.25769 | 27.99472 | 20988 ft | 464 kts | 259° |
| 2026-05-04 14:28 | 41.24903 | 27.95272 | 21624 ft | 472 kts | 259° |
| 2026-05-04 14:28 | 41.24034 | 27.91067 | 22325 ft | 477 kts | 258° |
| 2026-05-04 14:29 | 41.22258 | 27.82507 | 23697 ft | 487 kts | 258° |
| 2026-05-04 14:29 | 41.20431 | 27.73729 | 24289 ft | 504 kts | 258° |
| 2026-05-04 14:30 | 41.19491 | 27.69231 | 25185 ft | 503 kts | 258° |
| 2026-05-04 14:30 | 41.18565 | 27.64822 | 26193 ft | 500 kts | 258° |
| 2026-05-04 14:30 | 41.16678 | 27.55842 | 27364 ft | 511 kts | 258° |
| 2026-05-04 14:31 | 41.15711 | 27.51253 | 27918 ft | 517 kts | 257° |
| 2026-05-04 14:31 | 41.13758 | 27.42026 | 29225 ft | 523 kts | 257° |
| 2026-05-04 14:32 | 41.11776 | 27.32706 | 30707 ft | 524 kts | 256° |
| 2026-05-04 14:32 | 41.10789 | 27.28081 | 31553 ft | 521 kts | 256° |
| 2026-05-04 14:32 | 41.09798 | 27.23450 | 32469 ft | 515 kts | 256° |
| 2026-05-04 14:32 | 41.08829 | 27.18929 | 33333 ft | 510 kts | 256° |
| 2026-05-04 14:33 | 41.07853 | 27.14388 | 34075 ft | 507 kts | 256° |
| 2026-05-04 14:33 | 41.06890 | 27.09913 | 34756 ft | 504 kts | 256° |
| 2026-05-04 14:33 | 41.05925 | 27.05441 | 35213 ft | 501 kts | 256° |
| 2026-05-04 14:33 | 41.04960 | 27.00976 | 35593 ft | 499 kts | 256° |
| 2026-05-04 14:34 | 41.04007 | 26.96574 | 35879 ft | 497 kts | 256° |
| 2026-05-04 14:34 | 41.03048 | 26.92156 | 36012 ft | 500 kts | 256° |
| 2026-05-04 14:34 | 41.02090 | 26.87749 | 36046 ft | 498 kts | 256° |
| 2026-05-04 14:35 | 41.00182 | 26.79008 | 36053 ft | 495 kts | 256° |
| 2026-05-04 14:35 | 40.98253 | 26.70197 | 36057 ft | 496 kts | 256° |
| 2026-05-04 14:36 | 40.96326 | 26.61433 | 36054 ft | 497 kts | 256° |
| 2026-05-04 14:36 | 40.94390 | 26.52660 | 36049 ft | 496 kts | 256° |